sensor_id;sensor_type;location;lat;lon;timestamp;P1;durP1;ratioP1;P2;durP2;ratioP2
56122;SDS011;42426;46.104;19.656;2022-07-12T00:00:16;6.47;;;3.38;;
56122;SDS011;42426;46.104;19.656;2022-07-12T00:02:41;8.57;;;3.05;;
56122;SDS011;42426;46.104;19.656;2022-07-12T00:05:07;6.38;;;3.58;;
56122;SDS011;42426;46.104;19.656;2022-07-12T00:07:33;4.10;;;3.20;;
56122;SDS011;42426;46.104;19.656;2022-07-12T00:09:59;5.53;;;3.30;;
56122;SDS011;42426;46.104;19.656;2022-07-12T00:12:24;8.15;;;3.85;;
56122;SDS011;42426;46.104;19.656;2022-07-12T00:14:50;6.47;;;3.30;;
56122;SDS011;42426;46.104;19.656;2022-07-12T00:17:16;4.63;;;3.50;;
56122;SDS011;42426;46.104;19.656;2022-07-12T00:19:42;11.05;;;4.18;;
56122;SDS011;42426;46.104;19.656;2022-07-12T00:22:07;10.48;;;4.40;;
56122;SDS011;42426;46.104;19.656;2022-07-12T00:24:33;6.03;;;3.40;;
56122;SDS011;42426;46.104;19.656;2022-07-12T00:26:59;5.57;;;3.10;;
56122;SDS011;42426;46.104;19.656;2022-07-12T00:29:25;9.02;;;3.40;;
56122;SDS011;42426;46.104;19.656;2022-07-12T00:31:53;6.22;;;3.65;;
56122;SDS011;42426;46.104;19.656;2022-07-12T00:34:19;11.23;;;4.28;;
56122;SDS011;42426;46.104;19.656;2022-07-12T00:36:44;11.63;;;4.60;;
56122;SDS011;42426;46.104;19.656;2022-07-12T00:39:10;5.25;;;4.10;;
56122;SDS011;42426;46.104;19.656;2022-07-12T00:41:36;8.68;;;3.67;;
56122;SDS011;42426;46.104;19.656;2022-07-12T00:44:01;6.38;;;4.13;;
56122;SDS011;42426;46.104;19.656;2022-07-12T00:46:27;4.78;;;3.30;;
56122;SDS011;42426;46.104;19.656;2022-07-12T00:48:53;6.40;;;3.70;;
56122;SDS011;42426;46.104;19.656;2022-07-12T00:51:19;5.90;;;3.40;;
56122;SDS011;42426;46.104;19.656;2022-07-12T00:53:45;3.85;;;3.00;;
56122;SDS011;42426;46.104;19.656;2022-07-12T00:56:11;4.30;;;2.75;;
56122;SDS011;42426;46.104;19.656;2022-07-12T00:58:38;7.75;;;3.30;;
56122;SDS011;42426;46.104;19.656;2022-07-12T01:01:05;7.45;;;4.07;;
56122;SDS011;42426;46.104;19.656;2022-07-12T01:03:31;3.53;;;2.90;;
56122;SDS011;42426;46.104;19.656;2022-07-12T01:05:57;7.85;;;3.65;;
56122;SDS011;42426;46.104;19.656;2022-07-12T01:08:23;5.10;;;2.88;;
56122;SDS011;42426;46.104;19.656;2022-07-12T01:10:49;5.93;;;3.15;;
56122;SDS011;42426;46.104;19.656;2022-07-12T01:13:15;4.38;;;2.78;;
56122;SDS011;42426;46.104;19.656;2022-07-12T01:15:42;4.60;;;3.42;;
56122;SDS011;42426;46.104;19.656;2022-07-12T01:18:08;5.20;;;3.05;;
56122;SDS011;42426;46.104;19.656;2022-07-12T01:20:35;14.85;;;4.20;;
56122;SDS011;42426;46.104;19.656;2022-07-12T01:23:01;6.18;;;4.05;;
56122;SDS011;42426;46.104;19.656;2022-07-12T01:25:28;7.25;;;3.63;;
56122;SDS011;42426;46.104;19.656;2022-07-12T01:27:54;6.70;;;3.63;;
56122;SDS011;42426;46.104;19.656;2022-07-12T01:30:20;6.35;;;3.78;;
56122;SDS011;42426;46.104;19.656;2022-07-12T01:32:45;4.38;;;3.35;;
56122;SDS011;42426;46.104;19.656;2022-07-12T01:35:12;4.93;;;3.20;;
56122;SDS011;42426;46.104;19.656;2022-07-12T01:37:39;13.00;;;3.72;;
56122;SDS011;42426;46.104;19.656;2022-07-12T01:40:07;6.00;;;3.30;;
56122;SDS011;42426;46.104;19.656;2022-07-12T01:42:34;3.97;;;2.90;;
56122;SDS011;42426;46.104;19.656;2022-07-12T01:45:01;7.03;;;3.13;;
56122;SDS011;42426;46.104;19.656;2022-07-12T01:47:28;4.72;;;2.97;;
56122;SDS011;42426;46.104;19.656;2022-07-12T01:49:56;4.22;;;3.22;;
56122;SDS011;42426;46.104;19.656;2022-07-12T01:52:22;7.70;;;3.53;;
56122;SDS011;42426;46.104;19.656;2022-07-12T01:54:48;4.68;;;3.38;;
56122;SDS011;42426;46.104;19.656;2022-07-12T01:57:14;7.88;;;3.80;;
56122;SDS011;42426;46.104;19.656;2022-07-12T01:59:40;6.75;;;3.05;;
56122;SDS011;42426;46.104;19.656;2022-07-12T02:02:07;9.32;;;3.67;;
56122;SDS011;42426;46.104;19.656;2022-07-12T02:04:33;5.70;;;4.10;;
56122;SDS011;42426;46.104;19.656;2022-07-12T02:06:59;8.13;;;3.80;;
56122;SDS011;42426;46.104;19.656;2022-07-12T02:09:26;5.40;;;3.83;;
56122;SDS011;42426;46.104;19.656;2022-07-12T02:11:52;5.00;;;4.10;;
56122;SDS011;42426;46.104;19.656;2022-07-12T02:14:18;5.60;;;3.97;;
56122;SDS011;42426;46.104;19.656;2022-07-12T02:16:44;5.95;;;4.10;;
56122;SDS011;42426;46.104;19.656;2022-07-12T02:19:11;5.28;;;4.38;;
56122;SDS011;42426;46.104;19.656;2022-07-12T02:21:37;8.60;;;5.05;;
56122;SDS011;42426;46.104;19.656;2022-07-12T02:24:04;8.45;;;5.93;;
56122;SDS011;42426;46.104;19.656;2022-07-12T02:26:32;9.68;;;4.43;;
56122;SDS011;42426;46.104;19.656;2022-07-12T02:28:59;6.70;;;4.22;;
56122;SDS011;42426;46.104;19.656;2022-07-12T02:31:26;7.75;;;4.60;;
56122;SDS011;42426;46.104;19.656;2022-07-12T02:33:51;7.95;;;4.47;;
56122;SDS011;42426;46.104;19.656;2022-07-12T02:36:17;4.88;;;4.00;;
56122;SDS011;42426;46.104;19.656;2022-07-12T02:38:43;6.38;;;4.22;;
56122;SDS011;42426;46.104;19.656;2022-07-12T02:41:09;5.93;;;3.88;;
56122;SDS011;42426;46.104;19.656;2022-07-12T02:43:35;5.20;;;3.72;;
56122;SDS011;42426;46.104;19.656;2022-07-12T02:46:10;5.70;;;4.38;;
56122;SDS011;42426;46.104;19.656;2022-07-12T02:48:37;3.95;;;3.55;;
56122;SDS011;42426;46.104;19.656;2022-07-12T02:51:04;7.07;;;4.40;;
56122;SDS011;42426;46.104;19.656;2022-07-12T02:53:30;9.98;;;4.47;;
56122;SDS011;42426;46.104;19.656;2022-07-12T02:55:57;7.75;;;4.13;;
56122;SDS011;42426;46.104;19.656;2022-07-12T02:58:23;6.93;;;4.47;;
56122;SDS011;42426;46.104;19.656;2022-07-12T03:00:54;5.32;;;4.13;;
56122;SDS011;42426;46.104;19.656;2022-07-12T03:03:20;5.93;;;3.60;;
56122;SDS011;42426;46.104;19.656;2022-07-12T03:05:46;6.00;;;3.70;;
56122;SDS011;42426;46.104;19.656;2022-07-12T03:08:12;7.10;;;3.80;;
56122;SDS011;42426;46.104;19.656;2022-07-12T03:10:38;6.82;;;3.70;;
56122;SDS011;42426;46.104;19.656;2022-07-12T03:13:05;7.03;;;4.25;;
56122;SDS011;42426;46.104;19.656;2022-07-12T03:15:31;9.68;;;5.22;;
56122;SDS011;42426;46.104;19.656;2022-07-12T03:17:58;6.47;;;4.30;;
56122;SDS011;42426;46.104;19.656;2022-07-12T03:20:24;5.47;;;4.43;;
56122;SDS011;42426;46.104;19.656;2022-07-12T03:22:50;7.25;;;4.10;;
56122;SDS011;42426;46.104;19.656;2022-07-12T03:25:18;8.77;;;3.70;;
56122;SDS011;42426;46.104;19.656;2022-07-12T03:27:45;4.82;;;3.67;;
56122;SDS011;42426;46.104;19.656;2022-07-12T03:30:11;12.63;;;4.20;;
56122;SDS011;42426;46.104;19.656;2022-07-12T03:32:37;9.48;;;4.13;;
56122;SDS011;42426;46.104;19.656;2022-07-12T03:35:03;6.38;;;3.83;;
56122;SDS011;42426;46.104;19.656;2022-07-12T03:37:42;10.25;;;4.47;;
56122;SDS011;42426;46.104;19.656;2022-07-12T03:40:13;7.00;;;4.67;;
56122;SDS011;42426;46.104;19.656;2022-07-12T03:42:40;6.00;;;3.83;;
56122;SDS011;42426;46.104;19.656;2022-07-12T03:45:07;4.25;;;3.63;;
56122;SDS011;42426;46.104;19.656;2022-07-12T03:47:33;7.75;;;4.63;;
56122;SDS011;42426;46.104;19.656;2022-07-12T03:50:03;6.07;;;3.80;;
56122;SDS011;42426;46.104;19.656;2022-07-12T03:52:31;4.57;;;3.65;;
56122;SDS011;42426;46.104;19.656;2022-07-12T03:54:57;6.47;;;3.78;;
56122;SDS011;42426;46.104;19.656;2022-07-12T03:57:23;6.30;;;3.85;;
56122;SDS011;42426;46.104;19.656;2022-07-12T03:59:51;9.48;;;3.67;;
56122;SDS011;42426;46.104;19.656;2022-07-12T04:02:17;5.28;;;3.80;;
56122;SDS011;42426;46.104;19.656;2022-07-12T04:04:43;15.52;;;4.85;;
56122;SDS011;42426;46.104;19.656;2022-07-12T04:07:09;5.15;;;3.70;;
56122;SDS011;42426;46.104;19.656;2022-07-12T04:09:35;6.35;;;3.58;;
56122;SDS011;42426;46.104;19.656;2022-07-12T04:12:01;7.85;;;4.47;;
56122;SDS011;42426;46.104;19.656;2022-07-12T04:14:27;7.47;;;4.35;;
56122;SDS011;42426;46.104;19.656;2022-07-12T04:16:53;5.57;;;3.63;;
56122;SDS011;42426;46.104;19.656;2022-07-12T04:19:19;4.45;;;3.08;;
56122;SDS011;42426;46.104;19.656;2022-07-12T04:21:48;3.88;;;3.47;;
56122;SDS011;42426;46.104;19.656;2022-07-12T04:24:14;9.30;;;4.25;;
56122;SDS011;42426;46.104;19.656;2022-07-12T04:26:40;8.07;;;4.05;;
56122;SDS011;42426;46.104;19.656;2022-07-12T04:29:06;5.68;;;3.95;;
56122;SDS011;42426;46.104;19.656;2022-07-12T04:31:32;7.43;;;3.63;;
56122;SDS011;42426;46.104;19.656;2022-07-12T04:33:57;7.68;;;4.30;;
56122;SDS011;42426;46.104;19.656;2022-07-12T04:36:23;5.68;;;3.75;;
56122;SDS011;42426;46.104;19.656;2022-07-12T04:38:49;6.47;;;3.97;;
56122;SDS011;42426;46.104;19.656;2022-07-12T04:41:14;10.23;;;4.25;;
56122;SDS011;42426;46.104;19.656;2022-07-12T04:43:40;10.02;;;4.18;;
56122;SDS011;42426;46.104;19.656;2022-07-12T04:46:06;6.72;;;3.67;;
56122;SDS011;42426;46.104;19.656;2022-07-12T04:48:33;7.85;;;3.53;;
56122;SDS011;42426;46.104;19.656;2022-07-12T04:50:59;9.05;;;4.70;;
56122;SDS011;42426;46.104;19.656;2022-07-12T04:53:25;6.95;;;3.95;;
56122;SDS011;42426;46.104;19.656;2022-07-12T04:55:50;6.38;;;4.13;;
56122;SDS011;42426;46.104;19.656;2022-07-12T04:58:18;4.60;;;3.33;;
56122;SDS011;42426;46.104;19.656;2022-07-12T05:00:44;7.60;;;3.53;;
56122;SDS011;42426;46.104;19.656;2022-07-12T05:03:10;7.22;;;3.95;;
56122;SDS011;42426;46.104;19.656;2022-07-12T05:05:35;7.60;;;4.40;;
56122;SDS011;42426;46.104;19.656;2022-07-12T05:08:01;6.60;;;3.45;;
56122;SDS011;42426;46.104;19.656;2022-07-12T05:10:27;7.60;;;4.25;;
56122;SDS011;42426;46.104;19.656;2022-07-12T05:12:53;6.60;;;4.13;;
56122;SDS011;42426;46.104;19.656;2022-07-12T05:15:18;5.13;;;3.55;;
56122;SDS011;42426;46.104;19.656;2022-07-12T05:17:44;7.43;;;4.63;;
56122;SDS011;42426;46.104;19.656;2022-07-12T05:20:10;7.47;;;3.92;;
56122;SDS011;42426;46.104;19.656;2022-07-12T05:22:36;5.97;;;4.30;;
56122;SDS011;42426;46.104;19.656;2022-07-12T05:25:02;7.55;;;4.35;;
56122;SDS011;42426;46.104;19.656;2022-07-12T05:27:30;8.73;;;3.90;;
56122;SDS011;42426;46.104;19.656;2022-07-12T05:29:55;8.57;;;3.75;;
56122;SDS011;42426;46.104;19.656;2022-07-12T05:32:21;7.07;;;3.97;;
56122;SDS011;42426;46.104;19.656;2022-07-12T05:34:48;7.13;;;4.10;;
56122;SDS011;42426;46.104;19.656;2022-07-12T05:37:15;4.32;;;3.20;;
56122;SDS011;42426;46.104;19.656;2022-07-12T05:39:40;5.35;;;3.00;;
56122;SDS011;42426;46.104;19.656;2022-07-12T05:42:06;7.50;;;3.05;;
56122;SDS011;42426;46.104;19.656;2022-07-12T05:44:32;6.47;;;2.85;;
56122;SDS011;42426;46.104;19.656;2022-07-12T05:46:58;4.47;;;2.38;;
56122;SDS011;42426;46.104;19.656;2022-07-12T05:49:23;5.43;;;2.70;;
56122;SDS011;42426;46.104;19.656;2022-07-12T05:51:49;5.38;;;2.72;;
56122;SDS011;42426;46.104;19.656;2022-07-12T05:56:59;7.00;;;3.13;;
56122;SDS011;42426;46.104;19.656;2022-07-12T05:59:24;3.97;;;2.60;;
56122;SDS011;42426;46.104;19.656;2022-07-12T06:01:50;4.13;;;2.50;;
56122;SDS011;42426;46.104;19.656;2022-07-12T06:04:16;3.60;;;2.63;;
56122;SDS011;42426;46.104;19.656;2022-07-12T06:06:41;2.92;;;2.53;;
56122;SDS011;42426;46.104;19.656;2022-07-12T06:09:07;5.53;;;2.47;;
56122;SDS011;42426;46.104;19.656;2022-07-12T06:11:33;7.93;;;2.70;;
56122;SDS011;42426;46.104;19.656;2022-07-12T06:13:59;4.88;;;2.65;;
56122;SDS011;42426;46.104;19.656;2022-07-12T06:16:24;3.67;;;2.50;;
56122;SDS011;42426;46.104;19.656;2022-07-12T06:18:50;5.28;;;2.35;;
56122;SDS011;42426;46.104;19.656;2022-07-12T06:21:16;2.53;;;2.15;;
56122;SDS011;42426;46.104;19.656;2022-07-12T06:23:42;2.38;;;2.17;;
56122;SDS011;42426;46.104;19.656;2022-07-12T06:26:07;2.70;;;2.30;;
56122;SDS011;42426;46.104;19.656;2022-07-12T06:28:33;5.28;;;2.30;;
56122;SDS011;42426;46.104;19.656;2022-07-12T06:31:00;4.03;;;2.33;;
56122;SDS011;42426;46.104;19.656;2022-07-12T06:33:26;2.53;;;2.20;;
56122;SDS011;42426;46.104;19.656;2022-07-12T06:35:52;3.65;;;2.92;;
56122;SDS011;42426;46.104;19.656;2022-07-12T06:38:17;4.63;;;2.00;;
56122;SDS011;42426;46.104;19.656;2022-07-12T06:40:43;13.25;;;3.15;;
56122;SDS011;42426;46.104;19.656;2022-07-12T06:43:09;5.50;;;2.20;;
56122;SDS011;42426;46.104;19.656;2022-07-12T06:45:39;3.88;;;2.30;;
56122;SDS011;42426;46.104;19.656;2022-07-12T06:48:05;9.88;;;2.30;;
56122;SDS011;42426;46.104;19.656;2022-07-12T06:50:31;7.97;;;2.45;;
56122;SDS011;42426;46.104;19.656;2022-07-12T06:52:57;4.28;;;2.08;;
56122;SDS011;42426;46.104;19.656;2022-07-12T06:55:23;2.45;;;2.05;;
56122;SDS011;42426;46.104;19.656;2022-07-12T06:57:49;2.13;;;1.92;;
56122;SDS011;42426;46.104;19.656;2022-07-12T07:00:15;2.42;;;2.10;;
56122;SDS011;42426;46.104;19.656;2022-07-12T07:02:41;2.33;;;2.08;;
56122;SDS011;42426;46.104;19.656;2022-07-12T07:05:07;5.53;;;2.70;;
56122;SDS011;42426;46.104;19.656;2022-07-12T07:07:33;2.30;;;2.05;;
56122;SDS011;42426;46.104;19.656;2022-07-12T07:09:59;2.70;;;2.17;;
56122;SDS011;42426;46.104;19.656;2022-07-12T07:12:25;4.38;;;2.20;;
56122;SDS011;42426;46.104;19.656;2022-07-12T07:14:50;3.08;;;1.92;;
56122;SDS011;42426;46.104;19.656;2022-07-12T07:17:17;5.55;;;2.00;;
56122;SDS011;42426;46.104;19.656;2022-07-12T07:19:44;4.15;;;2.03;;
56122;SDS011;42426;46.104;19.656;2022-07-12T07:22:10;5.45;;;2.33;;
56122;SDS011;42426;46.104;19.656;2022-07-12T07:24:37;4.15;;;2.20;;
56122;SDS011;42426;46.104;19.656;2022-07-12T07:27:03;2.60;;;1.92;;
56122;SDS011;42426;46.104;19.656;2022-07-12T07:29:29;2.47;;;2.22;;
56122;SDS011;42426;46.104;19.656;2022-07-12T07:32:13;2.95;;;2.38;;
56122;SDS011;42426;46.104;19.656;2022-07-12T07:34:39;2.25;;;2.00;;
56122;SDS011;42426;46.104;19.656;2022-07-12T07:37:07;3.25;;;2.20;;
56122;SDS011;42426;46.104;19.656;2022-07-12T07:39:33;5.22;;;1.90;;
56122;SDS011;42426;46.104;19.656;2022-07-12T07:41:59;4.50;;;2.30;;
56122;SDS011;42426;46.104;19.656;2022-07-12T07:44:24;4.30;;;2.00;;
56122;SDS011;42426;46.104;19.656;2022-07-12T07:46:50;6.88;;;2.30;;
56122;SDS011;42426;46.104;19.656;2022-07-12T07:49:16;7.68;;;2.92;;
56122;SDS011;42426;46.104;19.656;2022-07-12T07:51:42;7.35;;;2.50;;
56122;SDS011;42426;46.104;19.656;2022-07-12T08:04:47;4.63;;;2.65;;
56122;SDS011;42426;46.104;19.656;2022-07-12T08:07:13;5.15;;;2.50;;
56122;SDS011;42426;46.104;19.656;2022-07-12T08:09:39;2.53;;;2.15;;
56122;SDS011;42426;46.104;19.656;2022-07-12T08:12:05;4.22;;;2.38;;
56122;SDS011;42426;46.104;19.656;2022-07-12T08:14:31;4.40;;;2.72;;
56122;SDS011;42426;46.104;19.656;2022-07-12T08:16:57;5.05;;;2.60;;
56122;SDS011;42426;46.104;19.656;2022-07-12T08:19:23;3.00;;;2.40;;
56122;SDS011;42426;46.104;19.656;2022-07-12T08:21:49;4.93;;;2.50;;
56122;SDS011;42426;46.104;19.656;2022-07-12T08:24:15;2.50;;;2.10;;
56122;SDS011;42426;46.104;19.656;2022-07-12T08:30:03;5.00;;;2.30;;
56122;SDS011;42426;46.104;19.656;2022-07-12T08:35:50;7.63;;;2.97;;
56122;SDS011;42426;46.104;19.656;2022-07-12T08:41:38;4.65;;;2.60;;
56122;SDS011;42426;46.104;19.656;2022-07-12T08:47:26;5.00;;;2.35;;
56122;SDS011;42426;46.104;19.656;2022-07-12T08:53:13;4.65;;;2.15;;
56122;SDS011;42426;46.104;19.656;2022-07-12T09:08:39;2.58;;;2.05;;
56122;SDS011;42426;46.104;19.656;2022-07-12T09:14:29;3.58;;;2.10;;
56122;SDS011;42426;46.104;19.656;2022-07-12T09:20:19;3.60;;;2.10;;
56122;SDS011;42426;46.104;19.656;2022-07-12T09:26:07;3.03;;;2.30;;
56122;SDS011;42426;46.104;19.656;2022-07-12T09:31:56;2.75;;;1.88;;
56122;SDS011;42426;46.104;19.656;2022-07-12T09:38:09;3.33;;;1.95;;
56122;SDS011;42426;46.104;19.656;2022-07-12T09:43:57;4.78;;;2.13;;
56122;SDS011;42426;46.104;19.656;2022-07-12T09:49:45;4.05;;;2.10;;
56122;SDS011;42426;46.104;19.656;2022-07-12T09:55:32;4.40;;;2.10;;
56122;SDS011;42426;46.104;19.656;2022-07-12T10:01:22;2.67;;;2.40;;
56122;SDS011;42426;46.104;19.656;2022-07-12T10:10:58;5.38;;;2.35;;
56122;SDS011;42426;46.104;19.656;2022-07-12T10:16:45;2.85;;;2.10;;
56122;SDS011;42426;46.104;19.656;2022-07-12T10:21:53;6.97;;;2.65;;
56122;SDS011;42426;46.104;19.656;2022-07-12T10:25:02;10.95;;;3.30;;
56122;SDS011;42426;46.104;19.656;2022-07-12T10:29:40;2.78;;;2.38;;
56122;SDS011;42426;46.104;19.656;2022-07-12T10:32:22;4.38;;;2.42;;
56122;SDS011;42426;46.104;19.656;2022-07-12T10:35:06;7.60;;;2.88;;
56122;SDS011;42426;46.104;19.656;2022-07-12T10:37:37;2.20;;;2.10;;
56122;SDS011;42426;46.104;19.656;2022-07-12T10:43:27;3.55;;;2.08;;
56122;SDS011;42426;46.104;19.656;2022-07-12T10:45:42;3.47;;;2.35;;
56122;SDS011;42426;46.104;19.656;2022-07-12T10:48:19;2.72;;;2.20;;
56122;SDS011;42426;46.104;19.656;2022-07-12T10:56:29;7.95;;;2.30;;
56122;SDS011;42426;46.104;19.656;2022-07-12T11:01:26;2.50;;;2.25;;
56122;SDS011;42426;46.104;19.656;2022-07-12T11:03:58;4.72;;;2.22;;
56122;SDS011;42426;46.104;19.656;2022-07-12T11:06:37;3.97;;;2.40;;
56122;SDS011;42426;46.104;19.656;2022-07-12T11:09:11;3.08;;;2.28;;
56122;SDS011;42426;46.104;19.656;2022-07-12T11:11:41;6.78;;;2.67;;
56122;SDS011;42426;46.104;19.656;2022-07-12T11:14:09;2.58;;;2.00;;
56122;SDS011;42426;46.104;19.656;2022-07-12T11:16:45;4.82;;;2.17;;
56122;SDS011;42426;46.104;19.656;2022-07-12T11:19:13;3.47;;;2.40;;
56122;SDS011;42426;46.104;19.656;2022-07-12T11:21:42;4.65;;;2.55;;
56122;SDS011;42426;46.104;19.656;2022-07-12T11:27:31;4.60;;;2.20;;
56122;SDS011;42426;46.104;19.656;2022-07-12T11:29:59;7.25;;;3.17;;
56122;SDS011;42426;46.104;19.656;2022-07-12T11:32:39;4.38;;;2.55;;
56122;SDS011;42426;46.104;19.656;2022-07-12T11:35:23;3.97;;;2.10;;
56122;SDS011;42426;46.104;19.656;2022-07-12T11:37:56;7.45;;;2.17;;
56122;SDS011;42426;46.104;19.656;2022-07-12T11:40:24;3.63;;;2.60;;
56122;SDS011;42426;46.104;19.656;2022-07-12T11:46:14;6.70;;;2.75;;
56122;SDS011;42426;46.104;19.656;2022-07-12T11:48:42;6.15;;;3.72;;
56122;SDS011;42426;46.104;19.656;2022-07-12T11:51:10;2.50;;;2.30;;
56122;SDS011;42426;46.104;19.656;2022-07-12T11:53:37;8.23;;;4.20;;
56122;SDS011;42426;46.104;19.656;2022-07-12T11:56:06;5.22;;;3.92;;
56122;SDS011;42426;46.104;19.656;2022-07-12T11:58:34;6.53;;;3.92;;
56122;SDS011;42426;46.104;19.656;2022-07-12T12:01:04;10.55;;;5.95;;
56122;SDS011;42426;46.104;19.656;2022-07-12T12:03:41;5.47;;;3.58;;
56122;SDS011;42426;46.104;19.656;2022-07-12T12:06:09;6.32;;;4.25;;
56122;SDS011;42426;46.104;19.656;2022-07-12T12:08:35;10.57;;;4.15;;
56122;SDS011;42426;46.104;19.656;2022-07-12T12:11:00;4.40;;;2.17;;
56122;SDS011;42426;46.104;19.656;2022-07-12T12:13:28;4.65;;;2.90;;
56122;SDS011;42426;46.104;19.656;2022-07-12T12:16:02;2.30;;;2.10;;
56122;SDS011;42426;46.104;19.656;2022-07-12T12:21:05;3.47;;;2.20;;
56122;SDS011;42426;46.104;19.656;2022-07-12T12:23:32;2.22;;;2.03;;
56122;SDS011;42426;46.104;19.656;2022-07-12T12:26:11;5.05;;;2.30;;
56122;SDS011;42426;46.104;19.656;2022-07-12T12:31:11;6.03;;;2.67;;
56122;SDS011;42426;46.104;19.656;2022-07-12T12:38:52;4.32;;;2.35;;
56122;SDS011;42426;46.104;19.656;2022-07-12T12:41:19;5.07;;;2.33;;
56122;SDS011;42426;46.104;19.656;2022-07-12T12:43:47;6.28;;;2.67;;
56122;SDS011;42426;46.104;19.656;2022-07-12T12:46:21;3.85;;;2.40;;
56122;SDS011;42426;46.104;19.656;2022-07-12T12:48:47;4.45;;;2.88;;
56122;SDS011;42426;46.104;19.656;2022-07-12T12:51:13;7.65;;;2.90;;
56122;SDS011;42426;46.104;19.656;2022-07-12T12:53:40;5.75;;;2.70;;
56122;SDS011;42426;46.104;19.656;2022-07-12T12:56:11;6.05;;;2.97;;
56122;SDS011;42426;46.104;19.656;2022-07-12T12:58:39;3.45;;;2.50;;
56122;SDS011;42426;46.104;19.656;2022-07-12T13:01:06;3.13;;;2.25;;
56122;SDS011;42426;46.104;19.656;2022-07-12T13:03:33;8.88;;;3.00;;
56122;SDS011;42426;46.104;19.656;2022-07-12T13:05:58;4.72;;;2.95;;
56122;SDS011;42426;46.104;19.656;2022-07-12T13:08:25;6.95;;;2.40;;
56122;SDS011;42426;46.104;19.656;2022-07-12T13:10:52;2.78;;;2.40;;
56122;SDS011;42426;46.104;19.656;2022-07-12T13:13:38;6.40;;;2.60;;
56122;SDS011;42426;46.104;19.656;2022-07-12T13:16:04;6.10;;;2.75;;
56122;SDS011;42426;46.104;19.656;2022-07-12T13:18:30;5.43;;;2.90;;
56122;SDS011;42426;46.104;19.656;2022-07-12T13:20:56;5.10;;;4.05;;
56122;SDS011;42426;46.104;19.656;2022-07-12T13:23:22;5.50;;;2.72;;
56122;SDS011;42426;46.104;19.656;2022-07-12T13:25:48;4.07;;;2.70;;
56122;SDS011;42426;46.104;19.656;2022-07-12T13:28:14;8.68;;;3.20;;
56122;SDS011;42426;46.104;19.656;2022-07-12T13:30:40;5.75;;;2.80;;
56122;SDS011;42426;46.104;19.656;2022-07-12T13:33:06;4.72;;;2.78;;
56122;SDS011;42426;46.104;19.656;2022-07-12T13:35:31;4.72;;;4.15;;
56122;SDS011;42426;46.104;19.656;2022-07-12T13:37:57;2.72;;;2.30;;
56122;SDS011;42426;46.104;19.656;2022-07-12T13:40:23;6.32;;;3.05;;
56122;SDS011;42426;46.104;19.656;2022-07-12T13:42:50;3.67;;;2.33;;
56122;SDS011;42426;46.104;19.656;2022-07-12T13:45:17;4.68;;;2.50;;
56122;SDS011;42426;46.104;19.656;2022-07-12T13:47:49;2.83;;;2.30;;
56122;SDS011;42426;46.104;19.656;2022-07-12T13:50:17;3.75;;;2.33;;
56122;SDS011;42426;46.104;19.656;2022-07-12T13:52:44;3.05;;;2.05;;
56122;SDS011;42426;46.104;19.656;2022-07-12T13:55:11;8.10;;;3.35;;
56122;SDS011;42426;46.104;19.656;2022-07-12T13:57:39;5.18;;;3.13;;
56122;SDS011;42426;46.104;19.656;2022-07-12T14:00:06;5.63;;;3.10;;
56122;SDS011;42426;46.104;19.656;2022-07-12T14:02:35;5.85;;;2.90;;
56122;SDS011;42426;46.104;19.656;2022-07-12T14:05:05;4.07;;;2.63;;
56122;SDS011;42426;46.104;19.656;2022-07-12T14:07:31;5.32;;;2.85;;
56122;SDS011;42426;46.104;19.656;2022-07-12T14:09:59;3.00;;;2.70;;
56122;SDS011;42426;46.104;19.656;2022-07-12T14:12:25;3.78;;;2.90;;
56122;SDS011;42426;46.104;19.656;2022-07-12T14:14:51;6.00;;;2.65;;
56122;SDS011;42426;46.104;19.656;2022-07-12T14:17:36;5.22;;;2.60;;
56122;SDS011;42426;46.104;19.656;2022-07-12T14:20:03;4.30;;;2.47;;
56122;SDS011;42426;46.104;19.656;2022-07-12T14:22:30;4.93;;;2.50;;
56122;SDS011;42426;46.104;19.656;2022-07-12T14:24:57;4.72;;;2.40;;
56122;SDS011;42426;46.104;19.656;2022-07-12T14:27:23;3.17;;;2.88;;
56122;SDS011;42426;46.104;19.656;2022-07-12T14:29:48;6.13;;;3.22;;
56122;SDS011;42426;46.104;19.656;2022-07-12T14:32:14;5.93;;;3.33;;
56122;SDS011;42426;46.104;19.656;2022-07-12T14:34:42;4.45;;;2.70;;
56122;SDS011;42426;46.104;19.656;2022-07-12T14:37:08;3.60;;;2.83;;
56122;SDS011;42426;46.104;19.656;2022-07-12T14:39:35;6.50;;;3.20;;
56122;SDS011;42426;46.104;19.656;2022-07-12T14:42:00;8.80;;;3.30;;
56122;SDS011;42426;46.104;19.656;2022-07-12T14:44:26;7.15;;;3.10;;
56122;SDS011;42426;46.104;19.656;2022-07-12T14:46:52;13.45;;;3.63;;
56122;SDS011;42426;46.104;19.656;2022-07-12T14:49:19;4.55;;;2.72;;
56122;SDS011;42426;46.104;19.656;2022-07-12T14:51:45;5.28;;;2.58;;
56122;SDS011;42426;46.104;19.656;2022-07-12T14:54:12;4.75;;;2.50;;
56122;SDS011;42426;46.104;19.656;2022-07-12T14:56:38;7.45;;;3.33;;
56122;SDS011;42426;46.104;19.656;2022-07-12T14:59:07;7.68;;;2.88;;
56122;SDS011;42426;46.104;19.656;2022-07-12T15:01:33;4.22;;;2.80;;
56122;SDS011;42426;46.104;19.656;2022-07-12T15:03:59;6.00;;;2.60;;
56122;SDS011;42426;46.104;19.656;2022-07-12T15:06:25;3.35;;;2.80;;
56122;SDS011;42426;46.104;19.656;2022-07-12T15:08:52;5.03;;;2.85;;
56122;SDS011;42426;46.104;19.656;2022-07-12T15:11:19;4.40;;;2.65;;
56122;SDS011;42426;46.104;19.656;2022-07-12T15:13:45;6.20;;;3.25;;
56122;SDS011;42426;46.104;19.656;2022-07-12T15:16:10;5.07;;;2.30;;
56122;SDS011;42426;46.104;19.656;2022-07-12T15:18:36;3.75;;;2.75;;
56122;SDS011;42426;46.104;19.656;2022-07-12T15:21:03;2.88;;;2.50;;
56122;SDS011;42426;46.104;19.656;2022-07-12T15:23:29;5.45;;;2.60;;
56122;SDS011;42426;46.104;19.656;2022-07-12T15:25:55;3.60;;;2.70;;
56122;SDS011;42426;46.104;19.656;2022-07-12T15:28:22;4.30;;;2.35;;
56122;SDS011;42426;46.104;19.656;2022-07-12T15:30:51;2.60;;;2.40;;
56122;SDS011;42426;46.104;19.656;2022-07-12T15:33:17;7.03;;;2.63;;
56122;SDS011;42426;46.104;19.656;2022-07-12T15:35:43;3.03;;;2.30;;
56122;SDS011;42426;46.104;19.656;2022-07-12T15:38:08;3.58;;;2.90;;
56122;SDS011;42426;46.104;19.656;2022-07-12T15:40:34;4.05;;;2.33;;
56122;SDS011;42426;46.104;19.656;2022-07-12T15:43:01;2.60;;;2.35;;
56122;SDS011;42426;46.104;19.656;2022-07-12T15:45:27;5.95;;;2.50;;
56122;SDS011;42426;46.104;19.656;2022-07-12T15:47:53;7.22;;;2.53;;
56122;SDS011;42426;46.104;19.656;2022-07-12T15:50:19;3.45;;;2.20;;
56122;SDS011;42426;46.104;19.656;2022-07-12T15:52:45;5.15;;;2.35;;
56122;SDS011;42426;46.104;19.656;2022-07-12T15:55:29;3.08;;;2.50;;
56122;SDS011;42426;46.104;19.656;2022-07-12T15:57:57;8.85;;;3.20;;
56122;SDS011;42426;46.104;19.656;2022-07-12T16:00:24;3.08;;;2.20;;
56122;SDS011;42426;46.104;19.656;2022-07-12T16:02:50;5.07;;;2.40;;
56122;SDS011;42426;46.104;19.656;2022-07-12T16:05:16;2.65;;;2.40;;
56122;SDS011;42426;46.104;19.656;2022-07-12T16:07:43;3.72;;;2.88;;
56122;SDS011;42426;46.104;19.656;2022-07-12T16:10:24;2.40;;;2.08;;
56122;SDS011;42426;46.104;19.656;2022-07-12T16:16:11;5.53;;;2.60;;
56122;SDS011;42426;46.104;19.656;2022-07-12T16:21:59;2.50;;;2.30;;
56122;SDS011;42426;46.104;19.656;2022-07-12T16:27:46;3.40;;;3.08;;
56122;SDS011;42426;46.104;19.656;2022-07-12T16:33:34;2.70;;;2.50;;
56122;SDS011;42426;46.104;19.656;2022-07-12T16:39:22;4.03;;;2.97;;
56122;SDS011;42426;46.104;19.656;2022-07-12T16:41:53;7.53;;;2.63;;
56122;SDS011;42426;46.104;19.656;2022-07-12T16:44:19;5.15;;;2.55;;
56122;SDS011;42426;46.104;19.656;2022-07-12T16:46:46;3.67;;;2.50;;